DAAG/ALG METAR and TAF weather

Enter ICAO airport designator
Station Type Date Time Source
DAAG METAR 2019/04/21 22:00 UTC NOAA

DAAG 212200Z 00000KT 6000 SCT016 FEW023CB BKN040 15/14 Q1000


Station Type Date Time Source
DAAG Decoded METAR 2019/04/21 22:00 UTC NOAA

Dar-El-Beida, Algeria (DAAG) 36-43N 003-15E 25M
Apr 21, 2019 - 06:00 PM EDT / 2019.04.21 2200 UTC
Wind: Calm:0
Visibility: 3 mile(s):0
Sky conditions: mostly cloudy
Weather: Cumulonimbus clouds observed
Temperature: 59 F (15 C)
Dew Point: 57 F (14 C)
Relative Humidity: 93%
Pressure (altimeter): 29.53 in. Hg (1000 hPa)
ob: DAAG 212200Z 00000KT 6000 SCT016 FEW023CB BKN040 15/14 Q1000
cycle: 22

Station Type Date Time Source
DAAG TAF 2019/04/21 18:33 UTC NOAA

TAF TAF DAAG 211700Z 2118/2218 02010KT 7000 SCT015 BKN033
TEMPO 2118/2203 5000 -TSRA FEW020TCU FEW023CB PROB40
TEMPO 2118/2124 02015G25KT 3000 TSRA SCT020CB BKN010
BECMG 2120/2123 24010KT PROB30
TEMPO 2203/2212 26015G25KT 4000 -RA BKN015 FEW020CB

Example: see airport list